Time;durP1;ratioP1;P1;durP2;ratioP2;P2;SDS_P1;SDS_P2;PMS_P1;PMS_P2;Temp;Humidity;BMP_temperature;BMP_pressure;BME280_temperature;BME280_humidity;BME280_pressure;Samples;Min_cycle;Max_cycle;Signal;HPM_P1;HPM_P2
2022/03/20 00:00:17;;;;;;;27.23;21.33;;;4.20;44.70;;;2.57;50.50;99256.19;5012575;28;20548;-79
2022/03/20 00:02:44;;;;;;;32.70;23.20;;;4.10;44.80;;;2.62;50.81;99263.78;5012902;28;20444;-78
2022/03/20 00:05:11;;;;;;;31.70;22.40;;;4.10;45.00;;;2.59;51.18;99245.38;4996642;28;20449;-78
2022/03/20 00:07:39;;;;;;;29.67;22.33;;;4.10;45.20;;;2.65;51.30;99258.19;4997175;28;20467;-77
2022/03/20 00:10:08;;;;;;;32.93;23.30;;;4.10;45.40;;;2.60;51.56;99258.59;4996930;28;20473;-76
2022/03/20 00:12:36;;;;;;;31.50;22.90;;;4.10;45.40;;;2.47;51.38;99249.97;4997183;28;20563;-77
2022/03/20 00:15:04;;;;;;;33.77;22.97;;;4.10;45.60;;;2.51;51.80;99259.41;4996877;28;20473;-76
2022/03/20 00:17:31;;;;;;;31.80;23.60;;;4.00;45.70;;;2.40;52.15;99239.00;4996972;28;20439;-77
2022/03/20 00:19:58;;;;;;;28.97;23.90;;;4.00;45.90;;;2.52;52.16;99259.28;5011565;28;21033;-77
2022/03/20 00:22:26;;;;;;;35.30;23.60;;;4.00;46.10;;;2.52;52.77;99251.28;4994842;28;20455;-77
2022/03/20 00:24:54;;;;;;;30.97;24.90;;;4.00;46.30;;;2.44;52.93;99248.41;5011824;28;20545;-77
2022/03/20 00:27:21;;;;;;;31.33;23.93;;;4.00;46.40;;;2.40;53.08;99247.00;4994966;28;20464;-78
2022/03/20 00:29:49;;;;;;;33.43;24.37;;;3.90;46.50;;;2.42;53.33;99253.03;4995452;28;20450;-78
2022/03/20 00:32:16;;;;;;;32.67;23.13;;;3.90;46.70;;;2.36;53.69;99249.06;4996607;28;20427;-78
2022/03/20 00:34:43;;;;;;;33.33;23.47;;;3.90;46.90;;;2.32;53.43;99241.47;4994891;28;20498;-78
2022/03/20 00:37:11;;;;;;;31.60;23.03;;;3.90;47.00;;;2.34;53.67;99247.50;4995181;28;20856;-79
2022/03/20 00:39:38;;;;;;;34.10;24.10;;;3.90;47.20;;;1.88;53.90;99169.66;5011765;28;20464;-79
2022/03/20 00:42:07;;;;;;;34.77;25.17;;;3.80;47.20;;;2.36;53.75;99253.59;5011828;28;20480;-79
2022/03/20 00:44:34;;;;;;;32.77;25.53;;;3.90;47.30;;;2.36;54.03;99243.75;4995012;28;20546;-78
2022/03/20 00:47:01;;;;;;;34.60;25.20;;;3.90;47.50;;;2.29;54.18;99236.41;4996350;28;20522;-79
2022/03/20 00:49:29;;;;;;;38.03;26.77;;;3.90;47.60;;;2.31;54.36;99239.78;5011367;28;20447;-77
2022/03/20 00:51:56;;;;;;;33.00;24.53;;;3.80;47.60;;;2.29;54.56;99247.06;4996337;28;20422;-78
2022/03/20 00:54:23;;;;;;;30.57;24.60;;;3.80;48.20;;;2.26;54.97;99248.16;5011535;28;20461;-79
2022/03/20 00:56:50;;;;;;;37.93;26.23;;;3.80;48.00;;;2.21;55.24;99251.25;4996466;28;20442;-78
2022/03/20 00:59:18;;;;;;;33.63;24.97;;;3.70;48.10;;;2.22;55.42;99247.59;4995318;28;20855;-77
2022/03/20 01:01:45;;;;;;;40.07;27.77;;;3.70;48.40;;;1.93;55.33;99205.63;5003235;28;20461;-77
2022/03/20 01:04:13;;;;;;;37.97;24.83;;;3.70;48.40;;;2.20;55.79;99249.56;5001125;28;20456;-78
2022/03/20 01:06:40;;;;;;;36.80;26.43;;;3.70;48.60;;;2.13;56.07;99248.38;5011712;28;20447;-78
2022/03/20 01:09:07;;;;;;;32.27;23.80;;;3.70;48.70;;;2.04;56.68;99238.50;5010782;28;21022;-76
2022/03/20 01:11:35;;;;;;;34.00;24.93;;;3.60;48.90;;;2.07;56.90;99248.91;4995792;28;20477;-76
2022/03/20 01:14:02;;;;;;;32.20;25.90;;;3.60;49.10;;;2.07;56.50;99248.91;4995810;28;20508;-76
2022/03/20 01:16:30;;;;;;;33.70;26.30;;;3.60;49.20;;;2.01;56.66;99254.75;5010869;28;20534;-76
2022/03/20 01:18:57;;;;;;;35.77;27.47;;;3.50;49.30;;;2.08;56.85;99253.28;4995642;28;20467;-76
2022/03/20 01:21:24;;;;;;;37.27;26.53;;;3.60;49.50;;;2.06;56.97;99241.91;4995972;28;20434;-76
2022/03/20 01:23:51;;;;;;;35.40;27.17;;;3.60;49.50;;;2.03;57.06;99239.47;4996011;28;20987;-77
2022/03/20 01:26:19;;;;;;;34.80;26.63;;;3.50;49.60;;;1.94;57.49;99239.28;4994087;28;20992;-76
2022/03/20 01:28:47;;;;;;;37.10;27.37;;;3.50;49.90;;;1.90;57.91;99237.88;5010694;28;20492;-75
2022/03/20 01:31:14;;;;;;;39.20;26.80;;;3.40;50.10;;;1.52;57.97;99178.84;4995764;28;20457;-75
2022/03/20 01:33:43;;;;;;;36.53;26.70;;;3.40;50.20;;;1.87;58.18;99235.44;4995728;28;20526;-76
2022/03/20 01:36:09;;;;;;;40.73;27.60;;;3.40;50.40;;;1.78;58.52;99222.91;4995365;28;20447;-76
2022/03/20 01:38:36;;;;;;;37.23;27.90;;;3.40;50.50;;;1.75;58.66;99224.00;4995653;28;20432;-76
2022/03/20 01:41:04;;;;;;;40.47;28.80;;;3.30;50.60;;;1.80;58.61;99220.94;5010456;28;20975;-76
2022/03/20 01:43:31;;;;;;;38.40;28.00;;;3.30;50.70;;;1.81;58.61;99226.13;4995211;28;20498;-76
2022/03/20 01:45:58;;;;;;;38.63;28.77;;;3.30;50.90;;;1.84;59.22;99230.38;4995906;28;20499;-76
2022/03/20 01:48:27;;;;;;;36.70;27.27;;;3.30;51.00;;;1.80;58.87;99223.63;4995956;28;20985;-76
2022/03/20 01:50:55;;;;;;;39.13;29.10;;;3.30;51.10;;;1.79;59.14;99222.75;4995248;28;20446;-78
2022/03/20 01:53:22;;;;;;;34.93;27.43;;;3.30;51.30;;;1.78;59.20;99228.25;4995195;28;20477;-77
2022/03/20 01:55:51;;;;;;;36.27;26.60;;;3.30;51.30;;;1.80;59.03;99228.94;4995457;28;20441;-77
2022/03/20 01:58:18;;;;;;;40.30;28.93;;;3.30;51.40;;;1.69;59.32;99209.38;4993759;28;20997;-76
2022/03/20 02:00:45;;;;;;;38.30;27.57;;;3.30;51.50;;;1.69;59.79;99225.34;4995035;28;20466;-76
2022/03/20 02:03:12;;;;;;;41.87;28.87;;;3.20;51.50;;;1.59;60.45;99235.09;4993866;28;20533;-77
2022/03/20 02:05:42;;;;;;;40.70;30.10;;;3.20;51.80;;;1.68;60.15;99229.00;4995102;28;20451;-76
2022/03/20 02:08:11;;;;;;;44.60;28.77;;;3.20;52.00;;;1.69;60.46;99230.69;4995978;28;20442;-76
2022/03/20 02:10:40;;;;;;;41.80;28.80;;;3.20;52.00;;;1.72;59.92;99229.59;5010533;28;20445;-77
2022/03/20 02:13:07;;;;;;;41.90;27.73;;;3.20;52.00;;;1.72;60.11;99218.06;4998781;28;20454;-78
2022/03/20 02:15:36;;;;;;;40.30;28.77;;;3.30;52.20;;;1.64;60.44;99222.25;5011835;28;20497;-77
2022/03/20 02:18:05;;;;;;;39.90;29.60;;;3.20;52.20;;;1.41;60.74;99197.53;5026544;28;20545;-76
2022/03/20 02:20:33;;;;;;;40.10;29.93;;;3.20;52.50;;;1.59;61.08;99228.94;4999206;28;20852;-77
2022/03/20 02:23:01;;;;;;;39.60;29.50;;;3.10;52.70;;;1.56;61.23;99235.34;4995770;28;20458;-77
2022/03/20 02:25:29;;;;;;;41.73;30.40;;;3.10;52.90;;;1.55;61.63;99223.88;4994818;28;20476;-77
2022/03/20 02:27:56;;;;;;;39.30;29.07;;;3.10;53.00;;;1.54;61.37;99223.97;5009934;28;20451;-77
2022/03/20 02:30:27;;;;;;;39.20;29.77;;;3.10;53.20;;;1.57;61.40;99223.72;5009484;28;20937;-76
2022/03/20 02:32:55;;;;;;;40.27;28.80;;;3.10;53.20;;;1.54;62.19;99229.31;4994856;28;20472;-76
2022/03/20 02:35:23;;;;;;;42.67;29.13;;;3.10;53.40;;;1.20;61.74;99174.34;4994729;28;20441;-76
2022/03/20 02:37:53;;;;;;;42.03;30.17;;;3.10;53.40;;;1.53;62.05;99224.94;5009565;28;20442;-79
2022/03/20 02:40:23;;;;;;;41.60;31.47;;;3.00;53.50;;;1.42;62.54;99216.03;4994502;28;20460;-77
2022/03/20 02:42:54;;;;;;;42.50;31.67;;;3.00;53.60;;;1.46;62.49;99221.13;4994387;28;20436;-77
2022/03/20 02:45:23;;;;;;;36.70;28.17;;;3.00;53.80;;;1.48;62.38;99232.50;4993065;28;20457;-76
2022/03/20 02:47:52;;;;;;;42.27;31.33;;;3.00;53.90;;;1.42;62.86;99225.84;4994197;28;20831;-77
2022/03/20 02:50:22;;;;;;;41.33;30.70;;;3.00;54.00;;;1.05;62.46;99160.50;4994513;28;20548;-77
2022/03/20 02:52:51;;;;;;;46.83;32.30;;;3.00;54.30;;;1.38;62.70;99211.09;4993607;28;20536;-78
2022/03/20 02:55:22;;;;;;;44.20;33.13;;;3.00;54.40;;;1.44;62.90;99231.88;5009140;28;20441;-76
2022/03/20 02:57:50;;;;;;;44.47;30.47;;;3.00;54.40;;;1.41;62.74;99222.31;5009590;28;20838;-76
2022/03/20 03:00:21;;;;;;;45.10;31.17;;;3.00;54.50;;;1.39;63.09;99239.44;5008928;28;20497;-76
2022/03/20 03:02:50;;;;;;;43.50;31.77;;;2.90;54.60;;;1.27;63.49;99225.28;4993317;28;20861;-78
2022/03/20 03:05:20;;;;;;;40.70;29.87;;;2.90;55.00;;;1.31;63.37;99232.06;4994265;28;20477;-78
2022/03/20 03:10:57;;;;;;;45.93;32.57;;;2.90;54.90;;;1.24;64.03;99234.38;4992949;28;20513;-77
2022/03/20 03:13:26;;;;;;;42.63;30.90;;;2.80;55.10;;;1.21;63.99;99226.63;4994330;28;20446;-78
2022/03/20 03:15:55;;;;;;;45.50;30.97;;;2.80;55.20;;;1.23;63.75;99238.03;5009070;28;20537;-77
2022/03/20 03:18:23;;;;;;;47.50;31.00;;;2.80;55.30;;;1.15;64.58;99245.78;5010015;28;20447;-76
2022/03/20 03:20:50;;;;;;;46.27;33.93;;;2.70;55.50;;;1.02;64.72;99232.63;4993652;28;20478;-76
2022/03/20 03:23:20;;;;;;;42.23;31.27;;;2.70;55.70;;;1.12;64.20;99238.03;4992867;28;20973;-77
2022/03/20 03:25:49;;;;;;;45.13;31.23;;;2.70;55.70;;;1.12;64.42;99238.03;4994184;28;20465;-77
2022/03/20 03:28:15;;;;;;;43.67;31.80;;;2.70;55.80;;;1.20;64.69;99246.22;5009509;28;20549;-77
2022/03/20 03:30:48;;;;;;;46.37;33.00;;;2.70;55.90;;;1.11;64.62;99245.16;4993810;28;20450;-77
2022/03/20 03:33:20;;;;;;;43.27;31.97;;;2.70;55.90;;;1.13;64.63;99247.72;4994014;28;20446;-76
2022/03/20 03:35:51;;;;;;;43.43;31.87;;;2.70;56.10;;;1.16;65.08;99246.63;4993898;28;20970;-76
2022/03/20 03:38:20;;;;;;;45.10;31.63;;;2.70;56.30;;;1.17;64.87;99253.66;4994306;28;20440;-75
2022/03/20 03:40:49;;;;;;;45.27;32.30;;;2.70;56.30;;;1.10;64.63;99251.47;5008658;28;20552;-76
2022/03/20 03:43:19;;;;;;;45.40;32.17;;;2.70;56.40;;;1.16;65.02;99260.78;4992393;28;20446;-75
2022/03/20 03:45:47;;;;;;;43.07;32.47;;;2.70;56.50;;;1.16;65.14;99259.94;4992561;28;20527;-76
2022/03/20 03:48:16;;;;;;;51.27;32.23;;;2.70;56.50;;;0.58;65.49;99191.81;5009666;28;20446;-76
2022/03/20 03:50:45;;;;;;;45.63;32.13;;;2.60;56.70;;;1.01;65.55;99270.88;4993887;28;20429;-76
2022/03/20 03:53:12;;;;;;;49.20;33.47;;;2.60;56.90;;;1.01;65.62;99259.34;4992636;28;20438;-76
2022/03/20 03:55:43;;;;;;;47.50;34.40;;;2.60;57.10;;;0.97;65.93;99266.72;5008595;28;20480;-76
2022/03/20 03:58:12;;;;;;;43.53;32.30;;;2.50;57.20;;;0.94;66.02;99272.31;4998372;28;20441;-77
2022/03/20 04:00:40;;;;;;;47.47;32.83;;;2.50;57.30;;;0.91;65.91;99261.91;5003851;28;20813;-78
2022/03/20 04:03:08;;;;;;;47.43;34.13;;;2.50;57.50;;;0.84;66.57;99273.06;5012678;28;20833;-78
2022/03/20 04:05:35;;;;;;;48.33;32.93;;;2.50;57.60;;;0.92;66.54;99279.56;4997461;28;20793;-78
2022/03/20 04:08:02;;;;;;;45.83;33.50;;;2.50;57.70;;;0.82;66.36;99284.78;4997230;28;20450;-78
2022/03/20 04:10:30;;;;;;;41.53;32.37;;;2.40;57.80;;;0.89;66.52;99285.97;4996278;28;20987;-78
2022/03/20 04:12:56;;;;;;;48.70;34.40;;;2.50;58.00;;;0.89;66.71;99291.31;4997476;28;20429;-78
2022/03/20 04:15:25;;;;;;;51.80;34.40;;;2.40;58.10;;;0.84;67.04;99272.19;4997087;28;20936;-77
2022/03/20 04:17:52;;;;;;;47.40;33.50;;;2.40;58.10;;;0.82;67.29;99269.66;4996823;28;20426;-77
2022/03/20 04:20:20;;;;;;;51.73;34.60;;;2.40;58.40;;;0.88;67.25;99278.13;4996743;28;20507;-76
2022/03/20 04:25:28;;;;;;;45.20;31.93;;;2.40;58.70;;;0.72;67.39;99273.16;5011206;28;20449;-76
2022/03/20 04:27:56;;;;;;;51.77;35.33;;;2.30;58.90;;;0.71;67.55;99282.97;4995186;28;20446;-76
2022/03/20 04:30:25;;;;;;;51.13;32.43;;;2.30;59.00;;;0.55;68.32;99275.34;5012135;28;20450;-76
2022/03/20 04:32:52;;;;;;;47.67;33.90;;;2.10;59.20;;;0.59;68.46;99281.28;4996689;28;20447;-76
2022/03/20 04:35:22;;;;;;;46.93;32.53;;;2.10;59.70;;;0.66;68.28;99278.00;4997352;28;20925;-76
2022/03/20 04:37:50;;;;;;;45.97;33.13;;;2.20;60.00;;;0.50;67.99;99273.03;4996653;28;20486;-77
2022/03/20 04:40:17;;;;;;;46.83;33.23;;;2.10;59.90;;;0.49;68.59;99278.50;4996293;28;20467;-77
2022/03/20 04:42:44;;;;;;;44.50;34.00;;;2.00;60.20;;;0.45;68.78;99264.59;4995153;28;20434;-77
2022/03/20 04:45:14;;;;;;;50.53;34.63;;;2.00;60.80;;;0.47;69.05;99280.44;4996761;28;20442;-78
2022/03/20 04:58:43;;;;;;;44.70;31.30;;;2.10;61.50;;;0.74;68.31;99282.72;5014151;28;20780;-76
2022/03/20 05:01:11;;;;;;;45.07;32.00;;;2.30;61.30;;;0.81;67.69;99289.25;5014554;28;20468;-77
2022/03/20 05:03:40;;;;;;;47.13;33.53;;;2.30;60.80;;;0.83;67.43;99291.78;5014433;28;20452;-77
2022/03/20 05:06:07;;;;;;;46.33;32.23;;;2.30;60.50;;;0.87;67.49;99289.75;5014215;28;20443;-77
2022/03/20 05:08:36;;;;;;;45.03;32.07;;;2.40;60.60;;;0.90;67.53;99302.81;5014622;28;20479;-76
2022/03/20 05:13:48;;;;;;;43.03;30.47;;;2.50;60.30;;;0.97;66.74;99304.00;5015755;28;20432;-76
2022/03/20 05:16:15;;;;;;;43.90;32.17;;;2.50;60.10;;;0.84;67.02;99291.69;5013862;28;20612;-77
2022/03/20 05:18:44;;;;;;;45.83;32.23;;;2.50;60.30;;;1.01;67.11;99309.94;5015818;28;21024;-78
2022/03/20 05:21:11;;;;;;;48.23;32.90;;;2.50;60.40;;;1.04;67.11;99320.31;5014237;28;20472;-78
2022/03/20 05:23:39;;;;;;;46.87;33.97;;;2.50;60.40;;;0.76;66.76;99270.16;5015025;28;20524;-76
2022/03/20 05:26:06;;;;;;;45.47;33.00;;;2.60;60.30;;;1.13;66.62;99317.78;5014097;28;20871;-76
2022/03/20 05:28:33;;;;;;;39.13;30.80;;;2.60;60.20;;;1.09;66.93;99311.00;5015430;28;20530;-76
2022/03/20 05:31:00;;;;;;;47.77;32.83;;;2.60;60.30;;;1.13;66.64;99304.47;5015110;28;20449;-78
2022/03/20 05:33:29;;;;;;;47.13;33.70;;;2.70;60.10;;;0.89;66.35;99247.88;5014836;28;20448;-78
2022/03/20 05:35:57;;;;;;;45.17;31.70;;;2.70;59.90;;;1.26;66.20;99315.00;5013549;28;20502;-77
2022/03/20 05:38:25;;;;;;;45.63;31.80;;;2.80;59.80;;;1.34;65.94;99311.69;5013557;28;20444;-77
2022/03/20 05:41:43;;;;;;;42.77;31.17;;;2.90;59.70;;;1.32;66.32;99313.66;5013856;28;20464;-78
2022/03/20 05:43:40;;;;;;;50.97;33.70;;;2.90;59.70;;;1.35;65.68;99312.53;5014817;28;20449;-77
2022/03/20 05:46:08;;;;;;;41.77;33.10;;;2.90;59.60;;;1.38;65.96;99313.13;5015614;28;20441;-80
2022/03/20 05:48:37;;;;;;;41.00;31.93;;;2.90;59.70;;;1.35;65.89;99308.06;5015039;28;20879;-79
2022/03/20 05:51:07;;;;;;;42.43;31.80;;;2.90;59.60;;;1.38;65.70;99306.97;5014284;28;20529;-78
2022/03/20 05:53:34;;;;;;;45.50;32.43;;;2.90;59.50;;;1.40;65.93;99326.34;5015145;28;20443;-78
2022/03/20 05:58:45;;;;;;;43.70;31.53;;;3.00;59.40;;;1.38;65.79;99322.97;5015598;28;20452;-79
2022/03/20 06:01:12;;;;;;;44.07;32.20;;;3.00;59.60;;;1.46;65.72;99317.84;5014028;28;20493;-83
2022/03/20 06:03:39;;;;;;;49.03;33.83;;;3.00;59.60;;;1.47;65.91;99321.38;5016913;28;20430;-80
2022/03/20 06:06:10;;;;;;;43.87;32.80;;;3.00;59.60;;;1.50;65.79;99327.28;5038507;28;20482;-79
2022/03/20 06:08:38;;;;;;;43.77;31.87;;;3.10;59.70;;;1.53;65.52;99320.84;5021987;28;20449;-75
2022/03/20 06:11:05;;;;;;;45.93;32.27;;;3.10;59.60;;;1.52;66.07;99325.34;5020052;28;20441;-81
2022/03/20 06:13:35;;;;;;;45.47;32.43;;;3.10;59.70;;;1.58;65.54;99323.16;5031384;28;20436;-68
2022/03/20 06:16:02;;;;;;;45.63;32.13;;;3.10;59.60;;;1.59;65.66;99317.66;5014766;28;21000;-77
2022/03/20 06:18:29;;;;;;;43.37;32.43;;;3.10;59.70;;;1.66;65.67;99331.34;5013195;28;20996;-75
2022/03/20 06:20:57;;;;;;;42.03;30.07;;;3.20;59.70;;;1.62;65.78;99325.44;5013069;28;20474;-71
2022/03/20 06:23:27;;;;;;;41.73;30.40;;;3.20;59.60;;;1.38;65.28;99254.53;5013955;28;20447;-71
2022/03/20 06:25:54;;;;;;;49.03;33.27;;;3.30;59.40;;;1.83;64.79;99325.50;5013166;28;20483;-71
2022/03/20 06:28:21;;;;;;;39.23;29.77;;;3.30;59.20;;;1.97;64.11;99321.66;5013601;28;20563;-71
2022/03/20 06:30:48;;;;;;;41.27;29.50;;;3.50;58.70;;;2.04;63.60;99323.81;5012741;28;20482;-71
2022/03/20 06:33:15;;;;;;;43.23;31.63;;;3.60;58.50;;;2.21;63.28;99323.25;5014064;28;20450;-71
2022/03/20 06:35:42;;;;;;;39.23;30.10;;;3.70;58.20;;;2.29;63.04;99321.75;5013886;28;20550;-76
2022/03/20 06:38:09;;;;;;;40.50;29.50;;;3.80;58.00;;;2.27;62.36;99308.53;5012637;28;20813;-74
2022/03/20 06:40:38;;;;;;;42.53;29.30;;;3.90;57.80;;;2.62;62.04;99338.50;5013627;28;21098;-74
2022/03/20 06:43:06;;;;;;;43.80;30.30;;;4.00;57.70;;;2.75;61.29;99341.81;5012834;28;20449;-73
2022/03/20 06:45:34;;;;;;;38.13;27.73;;;4.20;57.10;;;2.89;60.32;99348.66;5013317;28;20522;-73
2022/03/20 06:48:01;;;;;;;39.00;28.03;;;4.30;56.80;;;2.88;60.55;99344.28;5014106;28;20475;-75
2022/03/20 06:50:28;;;;;;;36.63;26.63;;;4.40;56.80;;;3.00;60.28;99353.06;5013748;28;20463;-74
2022/03/20 06:53:01;;;;;;;39.90;28.27;;;4.40;56.60;;;3.02;59.74;99359.09;5013911;28;20440;-74
2022/03/20 06:55:30;;;;;;;38.67;29.60;;;4.50;56.00;;;3.11;59.60;99366.31;5013259;28;20446;-76
2022/03/20 06:57:59;;;;;;;39.27;28.57;;;4.60;56.10;;;3.20;59.35;99369.16;5014000;28;20913;-74
2022/03/20 07:00:28;;;;;;;37.00;28.30;;;4.70;55.80;;;3.21;58.65;99349.47;5012737;28;20440;-75
2022/03/20 07:02:55;;;;;;;39.67;27.90;;;4.70;55.30;;;3.38;58.32;99359.50;5013298;28;20440;-74
2022/03/20 07:05:22;;;;;;;34.67;26.73;;;4.80;55.10;;;3.44;57.65;99371.47;5012067;28;20539;-75
2022/03/20 07:07:50;;;;;;;36.67;27.40;;;4.90;54.90;;;3.49;58.00;99371.06;5013919;28;20469;-75
2022/03/20 07:10:22;;;;;;;37.93;29.27;;;4.90;54.80;;;3.56;58.25;99364.19;5012499;28;20916;-74
2022/03/20 07:12:50;;;;;;;38.27;27.43;;;5.00;54.80;;;3.62;57.12;99363.66;5014108;28;20489;-73
2022/03/20 07:15:18;;;;;;;32.67;27.23;;;5.10;54.50;;;3.89;56.32;99369.31;5012093;28;20500;-73
2022/03/20 07:17:47;;;;;;;36.93;26.13;;;5.30;54.30;;;3.93;56.38;99368.91;5013651;28;20917;-73
2022/03/20 07:20:16;;;;;;;38.50;27.53;;;5.30;53.70;;;3.91;56.46;99376.22;5012274;28;20522;-74
2022/03/20 07:22:44;;;;;;;37.53;27.10;;;5.40;53.40;;;3.95;56.04;99380.31;5012246;28;20461;-72
2022/03/20 07:30:42;;;;;;;30.13;22.97;;;5.60;53.00;;;4.35;54.48;99391.84;5013036;28;20520;-73
2022/03/20 07:33:10;;;;;;;32.53;26.30;;;5.70;52.60;;;4.28;53.92;99382.72;5015012;28;20446;-73
2022/03/20 07:35:37;;;;;;;33.23;25.37;;;5.80;52.10;;;4.45;53.39;99388.34;5017285;28;20522;-73
2022/03/20 07:38:04;;;;;;;34.63;27.20;;;5.90;52.30;;;4.62;53.16;99392.09;5017502;28;20445;-73
2022/03/20 07:40:31;;;;;;;30.17;24.97;;;6.00;51.90;;;4.58;52.81;99380.84;5016595;28;20533;-73
2022/03/20 07:42:58;;;;;;;38.07;25.17;;;6.10;51.60;;;4.63;52.34;99393.81;5015860;28;20452;-73
2022/03/20 07:45:25;;;;;;;37.43;26.33;;;6.10;51.00;;;4.74;51.97;99396.31;5015438;28;20478;-73
2022/03/20 07:47:53;;;;;;;30.53;24.27;;;6.10;50.90;;;4.65;52.48;99391.84;5016750;28;20525;-73
2022/03/20 07:50:20;;;;;;;31.33;23.03;;;6.10;50.50;;;4.73;52.24;99391.13;5017033;28;20521;-72
2022/03/20 07:52:47;;;;;;;31.67;22.97;;;6.20;50.50;;;4.81;51.51;99392.09;5015430;28;20485;-73
2022/03/20 07:55:14;;;;;;;34.77;25.50;;;6.20;50.40;;;5.00;51.78;99401.06;5015842;28;20506;-78
2022/03/20 07:57:42;;;;;;;30.67;24.80;;;6.30;50.40;;;5.08;51.88;99392.28;5015383;28;20438;-73
2022/03/20 08:00:11;;;;;;;31.47;24.93;;;6.40;50.50;;;5.22;51.53;99399.00;5016477;28;20453;-73
2022/03/20 08:02:38;;;;;;;28.87;22.13;;;6.50;50.40;;;5.20;50.80;99401.84;5016364;28;20474;-73
2022/03/20 08:05:07;;;;;;;29.10;22.73;;;6.60;49.50;;;5.19;50.09;99401.97;5014884;28;20443;-73
2022/03/20 08:07:36;;;;;;;30.27;22.97;;;6.60;49.10;;;5.35;50.26;99409.41;5016354;28;20427;-74
2022/03/20 08:10:07;;;;;;;31.53;23.37;;;6.70;49.50;;;5.58;49.16;99409.00;5016181;28;20428;-74
2022/03/20 08:12:34;;;;;;;31.50;23.47;;;6.90;48.90;;;5.60;49.67;99402.50;5017370;28;20439;-73
2022/03/20 08:15:02;;;;;;;31.70;24.07;;;6.90;49.00;;;5.41;49.64;99359.72;5016568;28;20476;-72
2022/03/20 08:17:29;;;;;;;26.67;20.90;;;7.10;48.80;;;5.60;48.93;99401.66;5016167;28;20495;-72
2022/03/20 08:19:57;;;;;;;29.97;22.50;;;7.00;48.30;;;5.59;49.01;99394.59;5015026;28;20494;-71
2022/03/20 08:22:26;;;;;;;31.50;24.07;;;7.00;48.40;;;5.88;48.48;99405.16;5016009;28;20476;-72
2022/03/20 08:24:53;;;;;;;30.50;25.23;;;7.20;48.40;;;5.98;47.70;99393.50;5014449;28;20438;-71
2022/03/20 08:27:20;;;;;;;30.70;22.60;;;7.30;48.10;;;6.05;48.42;99395.47;5016613;28;20473;-73
2022/03/20 08:29:47;;;;;;;29.00;22.60;;;7.40;47.90;;;6.15;47.75;99390.03;5016455;28;20870;-74
2022/03/20 08:32:15;;;;;;;28.37;22.63;;;7.50;47.80;;;6.15;48.11;99390.03;5032495;28;20616;-74
2022/03/20 08:34:42;;;;;;;28.50;23.03;;;7.50;47.60;;;6.22;46.91;99385.75;5017993;28;20466;-73
2022/03/20 08:37:09;;;;;;;26.97;19.63;;;7.60;47.10;;;6.15;47.01;99373.94;5016011;28;20470;-74
2022/03/20 08:39:37;;;;;;;26.97;21.00;;;7.60;47.00;;;6.27;46.87;99387.09;5016239;28;20447;-73
2022/03/20 08:42:05;;;;;;;29.53;21.87;;;7.60;46.90;;;6.44;46.58;99393.47;5016398;28;20515;-73
2022/03/20 08:44:32;;;;;;;27.90;21.80;;;7.70;47.10;;;6.58;45.98;99400.97;5015337;28;20429;-76
2022/03/20 08:47:00;;;;;;;30.93;23.53;;;7.90;46.80;;;6.59;45.70;99401.81;5014215;28;20443;-77
2022/03/20 08:49:27;;;;;;;26.70;21.10;;;7.90;46.20;;;6.60;45.67;99400.84;5015621;28;20450;-77
2022/03/20 08:51:54;;;;;;;26.47;20.40;;;7.90;46.00;;;6.77;44.81;99393.72;5015281;28;20903;-78
2022/03/20 08:54:22;;;;;;;25.90;20.00;;;8.10;45.90;;;6.49;45.65;99354.44;5013990;28;20453;-77
2022/03/20 08:56:50;;;;;;;27.60;21.13;;;8.10;46.00;;;6.83;45.07;99398.50;5015396;28;20469;-77
2022/03/20 08:59:17;;;;;;;25.77;20.70;;;8.10;45.90;;;6.77;45.00;99378.47;5015360;28;20493;-76
2022/03/20 09:01:44;;;;;;;25.97;21.13;;;8.20;45.70;;;6.62;44.52;99358.56;5015429;28;20466;-77
2022/03/20 09:04:11;;;;;;;25.10;20.30;;;8.30;45.60;;;7.05;44.60;99397.13;4997521;28;20490;-77
2022/03/20 09:06:43;;;;;;;29.10;22.10;;;8.30;45.70;;;7.04;44.84;99395.41;5014377;28;20451;-77
2022/03/20 09:09:13;;;;;;;25.93;21.47;;;8.30;45.70;;;7.19;44.60;99382.22;5014433;28;20435;-78
2022/03/20 09:11:41;;;;;;;27.30;21.30;;;8.50;45.60;;;7.30;44.28;99389.16;5015101;28;20427;-71
2022/03/20 09:14:09;;;;;;;25.57;21.70;;;8.60;45.30;;;7.18;43.96;99395.81;5015058;28;20439;-71
2022/03/20 09:19:29;;;;;;;27.27;22.00;;;8.60;45.30;;;7.55;44.00;99401.88;4987188;28;20450;-69
2022/03/20 09:21:56;;;;;;;26.80;20.17;;;8.80;45.20;;;7.50;43.74;99394.28;5009857;28;20556;-71
2022/03/20 09:24:23;;;;;;;24.97;20.37;;;8.80;45.00;;;7.53;43.24;99394.00;4994977;28;20483;-67
2022/03/20 09:26:50;;;;;;;23.60;19.90;;;8.80;44.70;;;7.67;43.07;99402.44;5010008;28;20517;-68
2022/03/20 09:29:18;;;;;;;26.07;20.43;;;9.00;44.60;;;7.86;42.93;99402.16;4995205;28;20453;-68
2022/03/20 09:31:50;;;;;;;25.13;20.73;;;9.10;44.70;;;7.83;42.70;99407.03;4995342;28;20443;-68
2022/03/20 09:34:17;;;;;;;25.77;21.20;;;9.20;44.30;;;8.06;42.27;99399.19;4994833;28;20531;-68
2022/03/20 09:36:44;;;;;;;24.60;20.40;;;9.30;44.50;;;8.08;42.18;99398.00;5010191;28;20438;-71
2022/03/20 09:39:11;;;;;;;25.73;19.90;;;9.30;44.20;;;7.92;41.65;99392.59;4995108;28;20442;-68
2022/03/20 09:41:41;;;;;;;22.83;19.70;;;9.30;43.70;;;7.95;41.97;99394.94;4994963;28;20551;-69
2022/03/20 09:44:10;;;;;;;25.10;19.93;;;9.30;43.90;;;8.08;42.33;99403.41;4994944;28;20440;-68
2022/03/20 09:46:40;;;;;;;22.87;19.30;;;9.40;44.20;;;8.03;41.99;99389.56;5019041;28;20456;-69
2022/03/20 09:49:07;;;;;;;23.30;20.13;;;9.40;43.80;;;8.08;42.10;99391.78;5034612;28;20784;-71
2022/03/20 09:51:35;;;;;;;24.63;21.20;;;9.40;44.00;;;8.33;41.87;99387.25;5034971;28;20442;-70
2022/03/20 09:54:02;;;;;;;24.93;21.93;;;9.60;44.10;;;8.42;41.00;99393.53;5032675;28;20456;-71
2022/03/20 09:56:29;;;;;;;23.77;20.20;;;9.70;43.60;;;8.54;41.32;99391.34;5032213;28;20493;-70
2022/03/20 09:58:56;;;;;;;26.40;19.40;;;9.80;44.00;;;8.52;40.81;99397.91;5033958;28;20504;-70
2022/03/20 10:01:23;;;;;;;21.50;18.80;;;9.80;43.50;;;8.64;40.76;99393.88;5034791;28;20512;-77
2022/03/20 10:04:07;;;;;;;21.57;18.80;;;9.90;43.70;;;8.75;40.88;99393.53;5036044;28;20442;-73
2022/03/20 10:06:36;;;;;;;22.70;19.33;;;10.00;42.40;;;8.73;40.48;99395.56;5033548;28;20476;-73
2022/03/20 10:09:09;;;;;;;23.47;19.60;;;10.00;42.30;;;8.71;40.28;99396.72;5028088;28;20494;-74
2022/03/20 10:11:40;;;;;;;22.63;19.47;;;10.00;42.20;;;9.04;40.10;99392.16;5013956;28;20435;-74
2022/03/20 10:14:15;;;;;;;24.50;19.60;;;10.20;42.70;;;9.11;40.51;99396.84;5012332;28;20452;-75
2022/03/20 10:16:44;;;;;;;22.97;19.10;;;10.30;42.50;;;9.32;39.90;99397.09;5012904;28;20446;-76
2022/03/20 10:19:32;;;;;;;24.17;19.40;;;10.50;42.30;;;9.32;39.18;99393.56;5014040;28;20446;-65
2022/03/20 10:22:03;;;;;;;21.63;18.70;;;10.50;41.90;;;9.40;39.76;99390.88;5013741;28;20467;-64
2022/03/20 10:24:33;;;;;;;22.83;19.43;;;10.60;42.10;;;9.39;39.27;99386.47;5013873;28;20467;-64
2022/03/20 10:27:13;;;;;;;26.30;20.77;;;10.60;42.10;;;9.39;40.10;99393.72;5006595;28;20463;-66
2022/03/20 10:29:51;;;;;;;20.20;18.00;;;10.60;42.20;;;9.18;39.80;99381.66;5009362;28;20455;-65
2022/03/20 10:32:18;;;;;;;21.80;19.20;;;10.60;42.10;;;9.51;39.55;99386.94;5012719;28;20439;-72
2022/03/20 10:34:57;;;;;;;26.80;19.73;;;10.70;42.10;;;9.27;39.93;99385.19;5012229;28;20428;-73
2022/03/20 10:37:46;;;;;;;23.70;19.40;;;10.60;41.80;;;9.58;39.64;99393.31;5013625;28;20542;-73
2022/03/20 10:40:17;;;;;;;23.93;20.87;;;10.70;42.10;;;9.74;38.96;99380.75;5028725;28;20443;-72
2022/03/20 10:42:45;;;;;;;23.17;20.03;;;10.90;41.90;;;9.54;39.46;99374.94;5012946;28;20478;-72
2022/03/20 10:45:12;;;;;;;21.93;19.73;;;10.90;41.70;;;9.70;39.16;99380.25;5013449;28;20901;-73
2022/03/20 10:47:39;;;;;;;21.00;18.80;;;10.90;41.80;;;9.73;39.00;99389.88;5017788;28;20463;-72
2022/03/20 10:50:10;;;;;;;24.60;20.10;;;11.00;41.70;;;9.89;38.91;99384.38;5019715;28;20426;-71
2022/03/20 10:52:38;;;;;;;24.47;21.10;;;11.00;41.70;;;9.91;38.95;99395.84;5018600;28;20451;-72